createdAt,value
2023-02-22T00:02:35.341Z,5.0
2023-02-22T00:14:35.334Z,5.0
2023-02-22T00:26:35.359Z,5.0
2023-02-22T00:38:35.883Z,4.7
2023-02-22T00:50:35.428Z,4.5
2023-02-22T01:02:35.472Z,4.4
2023-02-22T01:14:35.344Z,4.4
2023-02-22T01:26:35.400Z,4.2
2023-02-22T01:38:35.330Z,4.2
2023-02-22T01:50:35.340Z,4.2
2023-02-22T02:02:36.685Z,4.3
2023-02-22T02:14:35.332Z,4.1
2023-02-22T02:26:35.322Z,4.1
2023-02-22T02:38:35.362Z,4.1
2023-02-22T02:50:35.409Z,4.0
2023-02-22T03:02:35.424Z,3.9
2023-02-22T03:14:35.329Z,3.9
2023-02-22T03:26:35.425Z,4.0
2023-02-22T03:38:35.335Z,3.5
2023-02-22T03:50:35.381Z,3.3
2023-02-22T04:02:35.389Z,3.7
2023-02-22T04:14:35.332Z,3.4
2023-02-22T04:26:35.359Z,3.7
2023-02-22T04:38:35.328Z,3.4
2023-02-22T04:50:35.413Z,2.7
2023-02-22T05:02:35.463Z,3.3
2023-02-22T05:14:35.329Z,3.0
2023-02-22T05:26:35.326Z,3.1
2023-02-22T05:38:35.329Z,3.0
2023-02-22T05:50:35.369Z,3.4
2023-02-22T06:02:35.330Z,1.9
2023-02-22T06:14:35.382Z,1.9
2023-02-22T06:26:35.407Z,1.8
2023-02-22T06:38:35.327Z,1.6
2023-02-22T06:50:36.038Z,1.3
2023-02-22T07:02:35.327Z,1.2
2023-02-22T07:14:35.432Z,1.3
2023-02-22T07:26:35.448Z,1.6
2023-02-22T07:38:35.344Z,3.1
2023-02-22T07:50:35.422Z,3.5
2023-02-22T08:02:35.465Z,3.2
2023-02-22T08:14:35.359Z,3.8
2023-02-22T08:26:35.578Z,4.0
2023-02-22T08:38:35.377Z,4.9
2023-02-22T08:50:35.443Z,5.0
2023-02-22T09:02:35.406Z,5.8
2023-02-22T09:14:35.446Z,5.8
2023-02-22T09:38:35.356Z,5.7
2023-02-22T09:50:35.538Z,5.7
2023-02-22T10:02:35.425Z,6.3
2023-02-22T10:14:35.360Z,7.0
2023-02-22T10:26:35.359Z,7.9
2023-02-22T10:38:35.338Z,8.9
2023-02-22T10:50:35.418Z,9.3
2023-02-22T11:02:35.429Z,9.7
2023-02-22T11:14:35.333Z,10.0
2023-02-22T11:26:35.335Z,10.5
2023-02-22T11:38:35.335Z,11.2
2023-02-22T11:50:35.414Z,11.0
2023-02-22T12:02:35.390Z,11.2
2023-02-22T12:14:35.379Z,11.3
2023-02-22T12:26:35.406Z,11.6
2023-02-22T12:38:35.327Z,11.9
2023-02-22T12:50:35.334Z,12.3
2023-02-22T13:02:35.417Z,12.8
2023-02-22T13:14:35.322Z,12.9
2023-02-22T13:26:35.342Z,12.6
2023-02-22T13:38:35.415Z,12.7
2023-02-22T13:50:35.391Z,12.8
2023-02-22T14:02:35.353Z,12.4
2023-02-22T14:14:35.394Z,12.5
2023-02-22T14:26:35.428Z,12.4
2023-02-22T14:38:35.330Z,12.3
2023-02-22T14:50:35.394Z,12.2
2023-02-22T15:02:35.350Z,11.8
2023-02-22T15:14:35.318Z,11.7
2023-02-22T15:26:35.371Z,11.6
2023-02-22T15:38:35.371Z,11.5
2023-02-22T15:50:35.336Z,11.5
2023-02-22T16:02:35.413Z,11.2
2023-02-22T16:14:35.327Z,11.0
2023-02-22T16:26:35.324Z,10.9
2023-02-22T16:38:35.374Z,10.7
2023-02-22T16:50:35.428Z,10.6
2023-02-22T17:02:35.325Z,10.3
2023-02-22T17:14:35.335Z,10.2
2023-02-22T17:26:36.684Z,10.2
2023-02-22T17:38:35.364Z,10.0
2023-02-22T17:50:35.421Z,10.0
2023-02-22T18:02:35.426Z,9.9
2023-02-22T18:14:35.341Z,9.9
2023-02-22T18:26:35.399Z,9.8
2023-02-22T18:38:35.392Z,9.7
2023-02-22T18:50:35.502Z,9.6
2023-02-22T19:02:35.397Z,9.6
2023-02-22T19:14:35.403Z,9.6
2023-02-22T19:26:35.321Z,9.5
2023-02-22T19:38:35.325Z,9.3
2023-02-22T19:50:35.369Z,9.1
2023-02-22T20:02:35.400Z,9.0
2023-02-22T20:14:35.329Z,9.0
2023-02-22T20:26:35.337Z,9.0
2023-02-22T20:38:35.395Z,9.0
2023-02-22T20:50:35.403Z,8.9
2023-02-22T21:02:35.394Z,8.8
2023-02-22T21:14:35.331Z,8.8
2023-02-22T21:26:35.345Z,8.8
2023-02-22T21:38:35.383Z,8.8
2023-02-22T21:50:35.338Z,8.8
2023-02-22T22:02:35.399Z,8.7
2023-02-22T22:14:35.490Z,8.6
2023-02-22T22:26:35.368Z,8.5
2023-02-22T22:38:35.344Z,8.4
2023-02-22T22:50:35.422Z,8.3
2023-02-22T23:02:35.407Z,8.3
2023-02-22T23:14:35.320Z,8.3
2023-02-22T23:26:35.347Z,8.2
2023-02-22T23:38:35.438Z,8.2
2023-02-22T23:50:36.129Z,8.1
